createdAt,value
2022-12-25T00:00:34.039Z,96.81
2022-12-25T00:05:58.857Z,96.77
2022-12-25T00:11:04.964Z,96.83
2022-12-25T00:16:10.324Z,96.84
2022-12-25T00:21:14.312Z,97.08
2022-12-25T00:26:17.825Z,96.93
2022-12-25T00:31:21.398Z,96.50
2022-12-25T00:36:24.538Z,96.37
2022-12-25T00:41:46.263Z,96.68
2022-12-25T00:46:49.090Z,96.50
2022-12-25T00:51:52.789Z,96.50
2022-12-25T00:56:55.537Z,96.33
2022-12-25T01:02:18.674Z,96.32
2022-12-25T01:07:23.907Z,96.38
2022-12-25T01:12:26.748Z,96.34
2022-12-25T01:17:29.484Z,96.35
2022-12-25T01:22:32.176Z,96.38
2022-12-25T01:27:35.468Z,96.36
2022-12-25T01:32:38.503Z,95.96
2022-12-25T01:37:41.306Z,95.48
2022-12-25T01:42:44.501Z,95.69
2022-12-25T01:47:47.505Z,96.12
2022-12-25T01:52:51.719Z,96.12
2022-12-25T01:57:54.815Z,95.82
2022-12-25T02:02:58.674Z,95.77
2022-12-25T02:08:07.935Z,95.77
2022-12-25T02:13:17.055Z,95.49
2022-12-25T02:18:32.929Z,95.38
2022-12-25T02:23:51.052Z,95.57
2022-12-25T02:29:01.951Z,95.22
2022-12-25T02:34:17.530Z,95.17
2022-12-25T02:39:45.279Z,95.05
2022-12-25T02:45:10.135Z,95.46
2022-12-25T02:50:34.581Z,95.48
2022-12-25T02:56:02.047Z,95.39
2022-12-25T03:01:29.290Z,95.58
2022-12-25T03:06:43.954Z,95.71
2022-12-25T03:11:54.771Z,95.30
2022-12-25T03:16:59.861Z,94.99
2022-12-25T03:22:23.698Z,95.38
2022-12-25T03:27:31.797Z,95.35
2022-12-25T03:32:37.527Z,95.17
2022-12-25T03:38:08.070Z,94.81
2022-12-25T03:43:55.659Z,95.14
2022-12-25T03:49:26.250Z,95.07
2022-12-25T03:54:52.120Z,94.80
2022-12-25T04:00:13.572Z,94.62
2022-12-25T04:05:34.912Z,94.89
2022-12-25T04:10:56.167Z,94.97
2022-12-25T04:16:17.364Z,94.90
2022-12-25T04:21:38.923Z,95.08
2022-12-25T04:27:00.443Z,95.39
2022-12-25T04:32:21.992Z,95.25
2022-12-25T04:37:24.727Z,95.10
2022-12-25T04:42:27.459Z,95.22
2022-12-25T04:47:30.204Z,95.22
2022-12-25T04:52:37.692Z,95.05
2022-12-25T04:57:40.471Z,95.37
2022-12-25T05:02:43.388Z,95.34
2022-12-25T05:07:46.414Z,95.63
2022-12-25T05:12:49.178Z,95.51
2022-12-25T05:17:51.938Z,95.78
2022-12-25T05:22:54.686Z,95.76
2022-12-25T05:27:57.496Z,95.41
2022-12-25T05:33:00.558Z,95.67
2022-12-25T05:38:03.980Z,95.75
2022-12-25T05:43:07.030Z,96.01
2022-12-25T05:48:09.942Z,96.01
2022-12-25T05:53:14.778Z,95.66
2022-12-25T05:58:17.538Z,95.73
2022-12-25T06:03:20.347Z,95.58
2022-12-25T06:08:23.211Z,95.72
2022-12-25T06:13:25.938Z,96.05
2022-12-25T06:18:28.699Z,95.88
2022-12-25T06:23:31.723Z,95.95
2022-12-25T06:28:34.986Z,96.15
2022-12-25T06:33:38.407Z,96.21
2022-12-25T06:38:41.809Z,96.06
2022-12-25T06:43:49.342Z,96.09
2022-12-25T06:48:53.688Z,96.09
2022-12-25T06:53:57.441Z,95.83
2022-12-25T06:59:09.159Z,95.80
2022-12-25T07:04:21.250Z,95.82
2022-12-25T07:09:24.202Z,95.95
2022-12-25T07:14:26.938Z,96.07
2022-12-25T07:19:29.704Z,95.66
2022-12-25T07:24:32.504Z,95.98
2022-12-25T07:29:35.278Z,95.82
2022-12-25T07:34:38.021Z,95.62
2022-12-25T07:39:40.837Z,95.81
2022-12-25T07:44:43.931Z,95.50
2022-12-25T07:49:46.722Z,95.29
2022-12-25T07:54:49.477Z,95.21
2022-12-25T07:59:52.241Z,94.96
2022-12-25T08:04:55.440Z,94.66
2022-12-25T08:09:58.178Z,94.31
2022-12-25T08:15:00.927Z,94.74
2022-12-25T08:20:04.140Z,94.85
2022-12-25T08:25:07.288Z,94.70
2022-12-25T08:30:10.316Z,94.40
2022-12-25T08:35:13.284Z,94.38
2022-12-25T08:40:16.182Z,94.29
2022-12-25T08:45:18.977Z,94.47
2022-12-25T08:50:25.704Z,94.45
2022-12-25T08:55:28.603Z,93.96
2022-12-25T09:00:31.873Z,94.11
2022-12-25T09:05:36.332Z,93.82
2022-12-25T09:10:39.075Z,94.03
2022-12-25T09:15:42.022Z,93.71
2022-12-25T09:20:44.804Z,93.25
2022-12-25T09:25:47.578Z,93.27
2022-12-25T09:30:52.298Z,93.31
2022-12-25T09:35:58.099Z,93.32
2022-12-25T09:41:22.957Z,92.90
2022-12-25T09:46:34.796Z,92.22
2022-12-25T09:51:42.303Z,92.09
2022-12-25T09:56:45.074Z,91.32
2022-12-25T10:02:11.985Z,91.50
2022-12-25T10:07:48.639Z,91.57
2022-12-25T10:13:01.006Z,91.51
2022-12-25T10:18:31.291Z,91.27
2022-12-25T10:23:41.061Z,92.14
2022-12-25T10:28:47.070Z,92.40
2022-12-25T10:33:52.850Z,91.63
2022-12-25T10:38:56.403Z,91.60
2022-12-25T10:43:59.260Z,92.15
2022-12-25T10:49:03.932Z,92.15
2022-12-25T10:54:35.201Z,92.20
2022-12-25T10:59:44.310Z,92.48
2022-12-25T11:04:48.136Z,91.77
2022-12-25T11:10:05.614Z,91.70
2022-12-25T11:15:37.242Z,92.32
2022-12-25T11:20:49.652Z,91.96
2022-12-25T11:26:07.285Z,92.18
2022-12-25T11:31:15.467Z,91.95
2022-12-25T11:36:26.813Z,91.63
2022-12-25T11:41:34.422Z,91.45
2022-12-25T11:46:48.679Z,91.49
2022-12-25T11:51:55.654Z,91.50
2022-12-25T11:57:03.530Z,91.68
2022-12-25T12:02:23.153Z,91.50
2022-12-25T12:07:32.278Z,91.50
2022-12-25T12:12:49.232Z,91.87
2022-12-25T12:17:53.270Z,92.17
2022-12-25T12:22:56.844Z,92.13
2022-12-25T12:28:05.644Z,92.16
2022-12-25T12:33:20.742Z,92.14
2022-12-25T12:38:24.966Z,92.10
2022-12-25T12:43:34.401Z,92.12
2022-12-25T12:48:41.413Z,91.90
2022-12-25T12:53:44.822Z,92.08
2022-12-25T12:58:50.981Z,92.14
2022-12-25T13:03:59.745Z,92.50
2022-12-25T13:09:33.655Z,92.66
2022-12-25T13:14:38.115Z,92.73
2022-12-25T13:19:43.029Z,92.58
2022-12-25T13:24:56.275Z,93.02
2022-12-25T13:29:59.617Z,92.87
2022-12-25T13:35:02.502Z,92.57
2022-12-25T13:40:26.159Z,92.51
2022-12-25T13:45:31.002Z,92.78
2022-12-25T13:50:35.173Z,92.62
2022-12-25T13:55:38.097Z,92.40
2022-12-25T14:00:48.113Z,92.32
2022-12-25T14:06:01.760Z,92.70
2022-12-25T14:11:06.567Z,92.84
2022-12-25T14:16:10.310Z,92.79
2022-12-25T14:21:22.899Z,93.12
2022-12-25T14:26:29.594Z,92.88
2022-12-25T14:31:34.301Z,92.87
2022-12-25T14:36:37.953Z,93.00
2022-12-25T14:41:42.290Z,93.31
2022-12-25T14:46:45.150Z,93.53
2022-12-25T14:51:48.032Z,93.51
2022-12-25T14:56:55.943Z,93.71
2022-12-25T15:02:03.560Z,93.94
2022-12-25T15:07:09.683Z,93.61
2022-12-25T15:12:13.143Z,93.77
2022-12-25T15:17:36.655Z,93.91
2022-12-25T15:23:10.168Z,93.91
2022-12-25T15:28:05.609Z,93.83
2022-12-25T15:33:14.547Z,94.00
2022-12-25T15:38:17.351Z,94.13
2022-12-25T15:43:40.083Z,94.07
2022-12-25T15:48:42.931Z,94.23
2022-12-25T15:53:45.697Z,94.31
2022-12-25T15:58:48.515Z,94.26
2022-12-25T16:03:51.729Z,94.55
2022-12-25T16:08:54.548Z,94.80
2022-12-25T16:13:57.274Z,95.34
2022-12-25T16:19:00.270Z,95.58
2022-12-25T16:24:03.172Z,95.41
2022-12-25T16:29:07.932Z,95.60
2022-12-25T16:34:11.418Z,95.68
2022-12-25T16:39:14.152Z,95.85
2022-12-25T16:44:16.932Z,95.72
2022-12-25T16:49:19.848Z,95.52
2022-12-25T16:54:22.663Z,95.77
2022-12-25T16:59:25.442Z,95.97
2022-12-25T17:04:28.354Z,95.87
2022-12-25T17:09:31.577Z,95.86
2022-12-25T17:14:35.886Z,96.01
2022-12-25T17:19:38.860Z,96.40
2022-12-25T17:24:41.664Z,96.28
2022-12-25T17:29:45.470Z,96.71
2022-12-25T17:34:48.286Z,96.92
2022-12-25T17:39:50.981Z,97.01
2022-12-25T17:44:53.939Z,97.46
2022-12-25T17:49:56.813Z,97.34
2022-12-25T17:54:59.598Z,97.25
2022-12-25T18:00:02.437Z,97.49
2022-12-25T18:05:05.685Z,97.34
2022-12-25T18:10:10.477Z,97.33
2022-12-25T18:15:13.288Z,97.48
2022-12-25T18:20:16.098Z,97.69
2022-12-25T18:25:18.954Z,97.68
2022-12-25T18:30:21.742Z,97.97
2022-12-25T18:35:29.179Z,97.80
2022-12-25T18:40:32.462Z,97.81
2022-12-25T18:45:35.627Z,97.97
2022-12-25T18:50:40.734Z,98.21
2022-12-25T18:55:43.473Z,98.54
2022-12-25T19:00:46.433Z,98.52
2022-12-25T19:05:49.538Z,98.75
2022-12-25T19:10:52.430Z,98.84
2022-12-25T19:15:58.817Z,98.76
2022-12-25T19:21:04.264Z,98.97
2022-12-25T19:26:08.585Z,98.93
2022-12-25T19:31:11.835Z,99.12
2022-12-25T19:36:17.813Z,99.08
2022-12-25T19:41:20.640Z,99.20
2022-12-25T19:46:27.372Z,99.56
2022-12-25T19:51:33.388Z,99.51
2022-12-25T19:56:36.229Z,99.54
2022-12-25T20:01:39.456Z,99.33
2022-12-25T20:06:45.273Z,99.42
2022-12-25T20:11:48.807Z,99.61
2022-12-25T20:16:51.664Z,99.66
2022-12-25T20:21:54.788Z,99.98
2022-12-25T20:26:59.500Z,99.95
2022-12-25T20:32:02.877Z,100.00
2022-12-25T20:37:05.741Z,100.00
2022-12-25T20:42:08.579Z,100.00
2022-12-25T20:47:11.349Z,100.00
2022-12-25T20:52:14.126Z,100.00
2022-12-25T20:57:16.904Z,100.00
2022-12-25T21:02:34.620Z,100.00
2022-12-25T21:07:39.997Z,100.00
2022-12-25T21:12:44.428Z,100.00
2022-12-25T21:17:47.159Z,100.00
2022-12-25T21:22:49.891Z,100.00
2022-12-25T21:27:53.119Z,100.00
2022-12-25T21:33:17.005Z,100.00
2022-12-25T21:38:22.456Z,100.00
2022-12-25T21:43:25.788Z,100.00
2022-12-25T21:48:28.819Z,100.00
2022-12-25T21:53:31.596Z,100.00
2022-12-25T21:58:34.817Z,100.00
2022-12-25T22:03:38.016Z,100.00
2022-12-25T22:08:40.888Z,100.00
2022-12-25T22:14:02.451Z,100.00
2022-12-25T22:19:25.292Z,100.00
2022-12-25T22:24:29.144Z,100.00
2022-12-25T22:29:31.937Z,100.00
2022-12-25T22:34:34.812Z,100.00
2022-12-25T22:39:37.517Z,100.00
2022-12-25T22:44:40.297Z,100.00
2022-12-25T22:49:43.061Z,100.00
2022-12-25T22:54:45.927Z,100.00
2022-12-25T22:59:48.739Z,100.00
2022-12-25T23:04:51.580Z,100.00
2022-12-25T23:09:54.411Z,100.00
2022-12-25T23:14:57.967Z,100.00
2022-12-25T23:20:19.640Z,100.00
2022-12-25T23:25:41.269Z,100.00
2022-12-25T23:30:44.063Z,100.00
2022-12-25T23:35:46.787Z,100.00
2022-12-25T23:40:49.516Z,100.00
2022-12-25T23:45:52.415Z,100.00
2022-12-25T23:50:55.255Z,100.00
2022-12-25T23:55:58.824Z,100.00
